createdAt,value
2023-04-29T00:02:21.759Z,8.39
2023-04-29T00:04:48.976Z,8.38
2023-04-29T00:07:16.274Z,8.39
2023-04-29T00:09:43.343Z,8.45
2023-04-29T00:12:11.022Z,8.43
2023-04-29T00:14:38.091Z,8.43
2023-04-29T00:17:05.694Z,8.41
2023-04-29T00:19:33.795Z,8.37
2023-04-29T00:22:01.407Z,8.34
2023-04-29T00:24:28.466Z,8.32
2023-04-29T00:26:55.534Z,8.30
2023-04-29T00:29:23.751Z,8.28
2023-04-29T00:31:50.994Z,8.26
2023-04-29T00:34:18.107Z,8.31
2023-04-29T00:36:45.128Z,8.26
2023-04-29T00:39:15.283Z,8.22
2023-04-29T00:41:42.784Z,8.16
2023-04-29T00:44:10.408Z,8.16
2023-04-29T00:46:37.544Z,8.13
2023-04-29T00:49:04.950Z,8.09
2023-04-29T00:51:33.370Z,8.07
2023-04-29T00:54:00.337Z,8.07
2023-04-29T00:56:27.682Z,8.03
2023-04-29T00:58:54.964Z,8.02
2023-04-29T01:01:22.215Z,8.02
2023-04-29T01:03:49.378Z,8.03
2023-04-29T01:06:35.221Z,7.97
2023-04-29T01:09:21.977Z,8.02
2023-04-29T01:12:16.572Z,7.95
2023-04-29T01:14:43.929Z,7.99
2023-04-29T01:17:11.882Z,7.99
2023-04-29T01:19:48.699Z,7.97
2023-04-29T01:22:17.822Z,7.99
2023-04-29T01:24:45.065Z,7.94
2023-04-29T01:27:19.284Z,7.93
2023-04-29T01:29:49.458Z,7.83
2023-04-29T01:32:19.191Z,7.83
2023-04-29T01:35:08.567Z,7.74
2023-04-29T01:37:42.770Z,7.72
2023-04-29T01:40:22.949Z,7.69
2023-04-29T01:43:12.063Z,7.66
2023-04-29T01:45:42.330Z,7.64
2023-04-29T01:48:09.370Z,7.65
2023-04-29T01:50:36.687Z,7.59
2023-04-29T01:53:13.984Z,7.58
2023-04-29T01:55:41.296Z,7.55
2023-04-29T01:58:28.271Z,7.52
2023-04-29T02:01:04.280Z,7.50
2023-04-29T02:03:32.396Z,7.50
2023-04-29T02:06:01.471Z,7.49
2023-04-29T02:08:28.973Z,7.50
2023-04-29T02:10:56.492Z,7.48
2023-04-29T02:13:37.891Z,7.48
2023-04-29T02:16:11.986Z,7.46
2023-04-29T02:18:43.034Z,7.42
2023-04-29T02:21:10.174Z,7.46
2023-04-29T02:23:37.731Z,7.51
2023-04-29T02:26:07.624Z,7.47
2023-04-29T02:28:35.206Z,7.38
2023-04-29T02:31:02.435Z,7.35
2023-04-29T02:33:30.714Z,7.33
2023-04-29T02:35:57.705Z,7.30
2023-04-29T02:38:24.712Z,7.28
2023-04-29T02:40:52.303Z,7.27
2023-04-29T02:43:19.276Z,7.26
2023-04-29T02:45:46.508Z,7.28
2023-04-29T02:48:13.573Z,7.26
2023-04-29T02:50:41.131Z,7.23
2023-04-29T02:53:08.109Z,7.20
2023-04-29T02:55:35.098Z,7.19
2023-04-29T02:58:06.876Z,7.17
2023-04-29T03:00:33.856Z,7.16
2023-04-29T03:03:02.063Z,7.16
2023-04-29T03:05:29.504Z,7.18
2023-04-29T03:07:56.590Z,7.14
2023-04-29T03:10:23.670Z,7.14
2023-04-29T03:12:50.699Z,7.14
2023-04-29T03:15:17.732Z,7.14
2023-04-29T03:17:46.665Z,7.17
2023-04-29T03:20:14.116Z,7.16
2023-04-29T03:22:41.127Z,7.17
2023-04-29T03:25:10.884Z,7.23
2023-04-29T03:27:39.781Z,7.21
2023-04-29T03:30:08.031Z,7.25
2023-04-29T03:32:36.174Z,7.27
2023-04-29T03:35:03.945Z,7.29
2023-04-29T03:37:36.300Z,7.32
2023-04-29T03:40:14.486Z,7.34
2023-04-29T03:42:42.235Z,7.35
2023-04-29T03:45:10.154Z,7.43
2023-04-29T03:47:37.277Z,7.41
2023-04-29T03:50:04.904Z,7.46
2023-04-29T03:52:31.936Z,7.44
2023-04-29T03:55:01.564Z,7.46
2023-04-29T03:57:28.623Z,7.46
2023-04-29T03:59:55.956Z,7.49
2023-04-29T04:02:24.141Z,7.52
2023-04-29T04:04:51.470Z,7.54
2023-04-29T04:07:18.613Z,7.56
2023-04-29T04:10:04.264Z,7.58
2023-04-29T04:12:31.773Z,7.61
2023-04-29T04:14:59.308Z,7.65
2023-04-29T04:17:27.242Z,7.67
2023-04-29T04:19:54.610Z,7.72
2023-04-29T04:22:21.866Z,7.78
2023-04-29T04:25:02.885Z,7.83
2023-04-29T04:27:30.317Z,7.87
2023-04-29T04:29:59.277Z,7.91
2023-04-29T04:32:31.791Z,7.98
2023-04-29T04:34:58.902Z,8.07
2023-04-29T04:37:26.576Z,8.12
2023-04-29T04:39:55.405Z,8.18
2023-04-29T04:42:23.389Z,8.22
2023-04-29T04:44:51.747Z,8.19
2023-04-29T04:47:41.807Z,8.19
2023-04-29T04:50:31.712Z,8.18
2023-04-29T04:52:59.817Z,8.19
2023-04-29T04:55:41.885Z,8.20
2023-04-29T04:58:09.115Z,8.21
2023-04-29T05:00:36.914Z,8.24
2023-04-29T05:03:04.467Z,8.28
2023-04-29T05:05:33.678Z,8.30
2023-04-29T05:08:01.294Z,8.33
2023-04-29T05:10:36.864Z,8.37
2023-04-29T05:13:04.934Z,8.37
2023-04-29T05:15:32.579Z,8.46
2023-04-29T05:18:00.605Z,8.49
2023-04-29T05:20:28.075Z,8.53
2023-04-29T05:22:55.506Z,8.49
2023-04-29T05:25:22.836Z,8.49
2023-04-29T05:27:50.027Z,8.48
2023-04-29T05:30:19.205Z,8.51
2023-04-29T05:32:46.716Z,8.59
2023-04-29T05:35:15.765Z,8.64
2023-04-29T05:37:44.446Z,8.73
2023-04-29T05:40:38.323Z,8.79
2023-04-29T05:43:24.566Z,8.88
2023-04-29T05:45:52.485Z,8.99
2023-04-29T05:48:19.498Z,9.13
2023-04-29T05:50:48.367Z,9.29
2023-04-29T05:53:15.611Z,9.47
2023-04-29T05:55:45.238Z,9.62
2023-04-29T05:58:13.247Z,9.75
2023-04-29T06:00:40.787Z,9.83
2023-04-29T06:03:12.793Z,9.84
2023-04-29T06:05:40.699Z,9.82
2023-04-29T06:08:27.123Z,9.82
2023-04-29T06:10:58.698Z,9.95
2023-04-29T06:13:26.669Z,10.11
2023-04-29T06:15:53.666Z,10.18
2023-04-29T06:18:21.063Z,10.32
2023-04-29T06:20:48.087Z,10.47
2023-04-29T06:23:15.164Z,10.41
2023-04-29T06:25:42.507Z,10.42
2023-04-29T06:28:10.688Z,10.43
2023-04-29T06:30:37.851Z,10.39
2023-04-29T06:33:05.157Z,10.37
2023-04-29T06:35:32.365Z,10.38
2023-04-29T06:38:24.719Z,10.41
2023-04-29T06:41:01.909Z,10.44
2023-04-29T06:43:52.196Z,10.52
2023-04-29T06:46:46.751Z,10.64
2023-04-29T06:49:27.569Z,10.76
2023-04-29T06:51:54.682Z,10.85
2023-04-29T06:54:21.944Z,10.98
2023-04-29T06:56:50.644Z,11.15
2023-04-29T06:59:18.143Z,11.28
2023-04-29T07:01:46.551Z,11.35
2023-04-29T07:04:14.801Z,11.43
2023-04-29T07:06:42.261Z,11.51
2023-04-29T07:09:09.318Z,11.65
2023-04-29T07:11:37.193Z,11.72
2023-04-29T07:14:04.184Z,11.78
2023-04-29T07:16:31.374Z,11.79
2023-04-29T07:18:58.396Z,11.83
2023-04-29T07:21:25.465Z,11.93
2023-04-29T07:23:56.316Z,12.08
2023-04-29T07:26:24.349Z,12.16
2023-04-29T07:28:51.486Z,12.11
2023-04-29T07:31:18.499Z,12.04
2023-04-29T07:33:46.700Z,12.01
2023-04-29T07:36:13.749Z,12.05
2023-04-29T07:38:40.923Z,12.13
2023-04-29T07:41:07.960Z,12.19
2023-04-29T07:43:35.021Z,12.20
2023-04-29T07:46:02.089Z,12.19
2023-04-29T07:48:29.174Z,12.17
2023-04-29T07:50:56.229Z,12.14
2023-04-29T07:53:23.214Z,12.10
2023-04-29T07:55:50.986Z,12.04
2023-04-29T07:58:19.371Z,11.97
2023-04-29T08:00:47.480Z,11.92
2023-04-29T08:03:14.671Z,11.89
2023-04-29T08:05:43.543Z,11.85
2023-04-29T08:08:14.510Z,11.85
2023-04-29T08:10:43.363Z,11.91
2023-04-29T08:13:11.563Z,12.02
2023-04-29T08:15:40.827Z,12.19
2023-04-29T08:18:07.864Z,12.33
2023-04-29T08:20:34.871Z,12.43
2023-04-29T08:23:01.950Z,12.51
2023-04-29T08:25:29.373Z,12.58
2023-04-29T08:27:56.398Z,12.61
2023-04-29T08:30:23.577Z,12.60
2023-04-29T08:32:51.058Z,12.57
2023-04-29T08:35:18.259Z,12.57
2023-04-29T08:37:45.344Z,12.59
2023-04-29T08:40:13.283Z,12.63
2023-04-29T08:42:41.047Z,12.69
2023-04-29T08:45:08.453Z,12.83
2023-04-29T08:47:35.603Z,13.07
2023-04-29T08:50:07.113Z,13.29
2023-04-29T08:52:34.344Z,13.48
2023-04-29T08:55:05.790Z,13.67
2023-04-29T08:57:39.813Z,13.74
2023-04-29T09:00:13.435Z,13.71
2023-04-29T09:02:50.406Z,13.65
2023-04-29T09:05:17.555Z,13.56
2023-04-29T09:07:44.675Z,13.45
2023-04-29T09:10:12.030Z,13.36
2023-04-29T09:12:39.064Z,13.32
2023-04-29T09:15:07.060Z,13.33
2023-04-29T09:17:44.571Z,13.33
2023-04-29T09:20:23.820Z,13.30
2023-04-29T09:23:01.755Z,13.32
2023-04-29T09:25:28.902Z,13.35
2023-04-29T09:27:55.936Z,13.35
2023-04-29T09:30:23.425Z,13.36
2023-04-29T09:33:06.930Z,13.42
2023-04-29T09:35:34.173Z,13.51
2023-04-29T09:38:14.874Z,13.62
2023-04-29T09:40:57.715Z,13.83
2023-04-29T09:43:26.522Z,14.07
2023-04-29T09:45:54.862Z,14.31
2023-04-29T09:48:21.931Z,14.50
2023-04-29T09:51:01.692Z,14.60
2023-04-29T09:53:30.096Z,14.58
2023-04-29T09:56:02.039Z,14.57
2023-04-29T09:58:31.114Z,14.59
2023-04-29T10:01:04.130Z,14.61
2023-04-29T10:03:38.614Z,14.64
2023-04-29T10:06:06.988Z,14.76
2023-04-29T10:08:34.505Z,14.89
2023-04-29T10:11:06.125Z,14.97
2023-04-29T10:13:35.171Z,15.05
2023-04-29T10:16:29.562Z,15.12
2023-04-29T10:18:57.464Z,15.24
2023-04-29T10:21:33.322Z,15.33
2023-04-29T10:24:02.127Z,15.43
2023-04-29T10:26:29.767Z,15.54
2023-04-29T10:28:57.157Z,15.54
2023-04-29T10:31:26.463Z,15.39
2023-04-29T10:33:57.591Z,15.20
2023-04-29T10:36:26.408Z,15.04
2023-04-29T10:38:55.288Z,14.89
2023-04-29T10:41:25.819Z,14.72
2023-04-29T10:43:53.124Z,14.58
2023-04-29T10:46:24.090Z,14.48
2023-04-29T10:48:55.913Z,14.37
2023-04-29T10:51:42.436Z,14.22
2023-04-29T10:54:14.326Z,14.08
2023-04-29T10:56:43.261Z,13.96
2023-04-29T10:59:14.100Z,13.87
2023-04-29T11:01:51.352Z,13.80
2023-04-29T11:04:19.898Z,13.75
2023-04-29T11:06:56.721Z,13.69
2023-04-29T11:09:31.240Z,13.62
2023-04-29T11:12:00.634Z,13.61
2023-04-29T11:14:29.677Z,13.61
2023-04-29T11:16:59.075Z,13.62
2023-04-29T11:19:36.914Z,13.66
2023-04-29T11:22:08.729Z,13.71
2023-04-29T11:24:37.071Z,13.75
2023-04-29T11:27:07.305Z,13.80
2023-04-29T11:29:34.316Z,13.87
2023-04-29T11:32:04.845Z,13.96
2023-04-29T11:34:32.505Z,14.03
2023-04-29T11:37:00.387Z,14.08
2023-04-29T11:39:28.295Z,14.11
2023-04-29T11:42:07.907Z,14.14
2023-04-29T11:44:36.149Z,14.18
2023-04-29T11:47:12.708Z,14.30
2023-04-29T11:49:39.737Z,14.45
2023-04-29T11:52:07.901Z,14.55
2023-04-29T11:54:34.942Z,14.65
2023-04-29T11:57:04.952Z,14.73
2023-04-29T11:59:33.208Z,14.85
2023-04-29T12:02:01.113Z,14.97
2023-04-29T12:04:28.989Z,15.08
2023-04-29T12:06:57.668Z,15.09
2023-04-29T12:09:24.831Z,15.06
2023-04-29T12:11:52.723Z,15.04
2023-04-29T12:14:20.766Z,15.01
2023-04-29T12:16:48.205Z,15.00
2023-04-29T12:19:15.268Z,15.00
2023-04-29T12:21:49.709Z,14.98
2023-04-29T12:24:17.096Z,14.97
2023-04-29T12:26:45.604Z,14.97
2023-04-29T12:29:13.474Z,14.99
2023-04-29T12:31:43.267Z,14.98
2023-04-29T12:34:10.580Z,14.97
2023-04-29T12:36:38.076Z,14.94
2023-04-29T12:39:08.530Z,14.93
2023-04-29T12:41:42.898Z,14.94
2023-04-29T12:44:13.203Z,14.98
2023-04-29T12:46:41.549Z,15.03
2023-04-29T12:49:09.010Z,15.09
2023-04-29T12:51:36.888Z,15.14
2023-04-29T12:54:04.667Z,15.20
2023-04-29T12:56:32.071Z,15.23
2023-04-29T12:59:09.952Z,15.24
2023-04-29T13:01:38.676Z,15.22
2023-04-29T13:04:09.234Z,15.18
2023-04-29T13:06:40.100Z,15.13
2023-04-29T13:09:17.001Z,15.09
2023-04-29T13:11:45.584Z,15.09
2023-04-29T13:14:12.597Z,15.07
2023-04-29T13:16:39.771Z,15.02
2023-04-29T13:19:24.729Z,14.97
2023-04-29T13:21:54.407Z,14.91
2023-04-29T13:24:21.572Z,14.86
2023-04-29T13:26:52.382Z,14.83
2023-04-29T13:29:19.960Z,14.82
2023-04-29T13:31:47.015Z,14.84
2023-04-29T13:34:15.883Z,14.86
2023-04-29T13:36:43.050Z,14.84
2023-04-29T13:39:10.637Z,14.83
2023-04-29T13:41:41.261Z,14.83
2023-04-29T13:44:23.887Z,14.82
2023-04-29T13:46:57.631Z,14.83
2023-04-29T13:49:55.740Z,14.84
2023-04-29T13:53:01.561Z,14.84
2023-04-29T13:55:49.458Z,14.84
2023-04-29T14:00:38.085Z,14.84
2023-04-29T14:03:04.278Z,14.87
2023-04-29T14:05:33.542Z,14.90
2023-04-29T14:08:00.895Z,14.94
2023-04-29T14:10:28.002Z,14.97
2023-04-29T14:12:56.253Z,14.95
2023-04-29T14:15:23.334Z,14.91
2023-04-29T14:17:50.561Z,14.90
2023-04-29T14:20:17.798Z,14.92
2023-04-29T14:22:46.003Z,14.96
2023-04-29T14:25:14.077Z,14.97
2023-04-29T14:27:42.030Z,14.94
2023-04-29T14:30:09.632Z,14.91
2023-04-29T14:32:36.893Z,14.88
2023-04-29T14:35:04.134Z,14.86
2023-04-29T14:37:31.927Z,14.86
2023-04-29T14:39:59.161Z,14.86
2023-04-29T14:42:26.283Z,14.85
2023-04-29T14:44:54.561Z,14.84
2023-04-29T14:47:22.172Z,14.85
2023-04-29T14:49:49.238Z,14.86
2023-04-29T14:52:16.344Z,14.88
2023-04-29T14:54:43.348Z,14.91
2023-04-29T14:57:11.032Z,14.96
2023-04-29T14:59:38.191Z,15.10
2023-04-29T15:02:07.831Z,15.23
2023-04-29T15:04:35.950Z,15.29
2023-04-29T15:07:03.768Z,15.26
2023-04-29T15:09:31.178Z,15.20
2023-04-29T15:11:58.503Z,15.13
2023-04-29T15:14:26.430Z,15.04
2023-04-29T15:16:53.690Z,14.97
2023-04-29T15:19:21.258Z,14.92
2023-04-29T15:21:48.309Z,14.91
2023-04-29T15:24:15.411Z,14.91
2023-04-29T15:26:42.613Z,14.90
2023-04-29T15:29:09.670Z,14.86
2023-04-29T15:31:37.065Z,14.81
2023-04-29T15:34:04.148Z,14.76
2023-04-29T15:36:32.797Z,14.72
2023-04-29T15:39:00.418Z,14.68
2023-04-29T15:41:27.503Z,14.64
2023-04-29T15:43:55.411Z,14.62
2023-04-29T15:46:22.735Z,14.64
2023-04-29T15:48:49.814Z,14.65
2023-04-29T15:51:16.885Z,14.66
2023-04-29T15:53:44.802Z,14.67
2023-04-29T15:56:12.246Z,14.66
2023-04-29T15:58:39.334Z,14.67
2023-04-29T16:01:06.829Z,14.69
2023-04-29T16:03:34.689Z,14.74
2023-04-29T16:06:01.909Z,14.75
2023-04-29T16:08:29.691Z,14.65
2023-04-29T16:10:56.892Z,14.53
2023-04-29T16:13:24.021Z,14.41
2023-04-29T16:15:51.117Z,14.30
2023-04-29T16:18:18.367Z,14.19
2023-04-29T16:20:45.761Z,14.09
2023-04-29T16:23:13.271Z,14.00
2023-04-29T16:25:41.671Z,13.92
2023-04-29T16:28:09.725Z,13.81
2023-04-29T16:30:37.053Z,13.72
2023-04-29T16:33:04.793Z,13.62
2023-04-29T16:35:32.786Z,13.56
2023-04-29T16:37:59.889Z,13.51
2023-04-29T16:40:27.936Z,13.44
2023-04-29T16:42:57.023Z,13.38
2023-04-29T16:45:25.320Z,13.34
2023-04-29T16:47:52.771Z,13.29
2023-04-29T16:50:19.867Z,13.22
2023-04-29T16:52:47.057Z,13.18
2023-04-29T16:55:14.314Z,13.17
2023-04-29T16:57:45.409Z,13.16
2023-04-29T17:00:13.294Z,13.18
2023-04-29T17:02:43.252Z,13.22
2023-04-29T17:05:11.255Z,13.15
2023-04-29T17:07:38.651Z,13.11
2023-04-29T17:10:06.705Z,13.09
2023-04-29T17:12:34.028Z,13.09
2023-04-29T17:15:01.275Z,13.10
2023-04-29T17:17:28.471Z,13.07
2023-04-29T17:19:56.637Z,13.00
2023-04-29T17:22:24.147Z,12.89
2023-04-29T17:24:51.484Z,12.78
2023-04-29T17:27:18.623Z,12.68
2023-04-29T17:29:46.412Z,12.60
2023-04-29T17:32:17.314Z,12.53
2023-04-29T17:34:44.305Z,12.50
2023-04-29T17:37:13.147Z,12.49
2023-04-29T17:39:40.815Z,12.46
2023-04-29T17:42:08.020Z,12.41
2023-04-29T17:44:37.616Z,12.31
2023-04-29T17:47:04.664Z,12.25
2023-04-29T17:49:32.710Z,12.28
2023-04-29T17:52:04.069Z,12.28
2023-04-29T17:54:31.853Z,12.28
2023-04-29T17:56:59.253Z,12.27
2023-04-29T17:59:26.446Z,12.32
2023-04-29T18:01:53.767Z,12.38
2023-04-29T18:04:21.125Z,12.34
2023-04-29T18:06:48.286Z,12.36
2023-04-29T18:09:15.737Z,12.28
2023-04-29T18:11:42.847Z,12.25
2023-04-29T18:14:10.203Z,12.23
2023-04-29T18:16:37.798Z,12.23
2023-04-29T18:19:05.224Z,12.19
2023-04-29T18:21:33.017Z,12.18
2023-04-29T18:24:00.183Z,12.17
2023-04-29T18:26:27.470Z,12.19
2023-04-29T18:28:55.386Z,12.21
2023-04-29T18:31:25.176Z,12.22
2023-04-29T18:33:52.533Z,12.23
2023-04-29T18:36:21.496Z,12.21
2023-04-29T18:38:48.708Z,12.21
2023-04-29T18:41:15.940Z,12.22
2023-04-29T18:43:43.066Z,12.21
2023-04-29T18:46:10.253Z,12.19
2023-04-29T18:48:39.075Z,12.15
2023-04-29T18:51:07.307Z,12.14
2023-04-29T18:53:34.685Z,12.15
2023-04-29T18:56:02.024Z,12.15
2023-04-29T18:58:29.368Z,12.16
2023-04-29T19:00:59.934Z,12.18
2023-04-29T19:03:27.433Z,12.18
2023-04-29T19:05:54.561Z,12.19
2023-04-29T19:08:21.707Z,12.16
2023-04-29T19:10:48.767Z,12.16
2023-04-29T19:13:16.384Z,12.12
2023-04-29T19:15:43.874Z,12.12
2023-04-29T19:18:11.290Z,12.12
2023-04-29T19:20:38.398Z,12.13
2023-04-29T19:23:05.840Z,12.10
2023-04-29T19:25:32.938Z,12.05
2023-04-29T19:28:00.363Z,11.99
2023-04-29T19:30:27.509Z,11.96
2023-04-29T19:32:54.791Z,11.93
2023-04-29T19:35:22.110Z,11.93
2023-04-29T19:37:49.634Z,11.87
2023-04-29T19:40:17.170Z,11.85
2023-04-29T19:42:44.940Z,11.85
2023-04-29T19:45:12.972Z,11.81
2023-04-29T19:47:40.209Z,11.75
2023-04-29T19:50:08.026Z,11.69
2023-04-29T19:52:35.211Z,11.66
2023-04-29T19:55:02.433Z,11.54
2023-04-29T19:57:30.772Z,11.51
2023-04-29T19:59:58.015Z,11.51
2023-04-29T20:02:25.297Z,11.49
2023-04-29T20:04:52.786Z,11.46
2023-04-29T20:07:20.084Z,11.45
2023-04-29T20:09:47.949Z,11.44
2023-04-29T20:12:14.953Z,11.44
2023-04-29T20:14:42.056Z,11.44
2023-04-29T20:17:09.251Z,11.45
2023-04-29T20:19:36.701Z,11.45
2023-04-29T20:22:03.981Z,11.40
2023-04-29T20:24:31.088Z,11.36
2023-04-29T20:26:58.561Z,11.32
2023-04-29T20:29:25.792Z,11.28
2023-04-29T20:32:27.866Z,11.25
2023-04-29T20:34:57.735Z,11.19
2023-04-29T20:37:25.066Z,11.16
2023-04-29T20:39:52.292Z,11.13
2023-04-29T20:42:19.840Z,11.14
2023-04-29T20:44:47.291Z,11.07
2023-04-29T20:47:15.591Z,11.07
2023-04-29T20:49:43.433Z,11.10
2023-04-29T20:52:10.848Z,11.10
2023-04-29T20:54:37.936Z,11.11
2023-04-29T20:57:05.904Z,11.10
2023-04-29T20:59:33.636Z,11.08
2023-04-29T21:02:01.008Z,11.10
2023-04-29T21:04:28.363Z,11.11
2023-04-29T21:06:55.565Z,11.10
2023-04-29T21:09:23.914Z,11.12
2023-04-29T21:11:52.273Z,11.13
2023-04-29T21:14:19.271Z,11.13
2023-04-29T21:16:46.356Z,11.10
2023-04-29T21:19:13.608Z,11.06
2023-04-29T21:21:40.645Z,11.07
2023-04-29T21:24:07.705Z,11.07
2023-04-29T21:26:34.695Z,11.08
2023-04-29T21:29:03.393Z,11.00
2023-04-29T21:31:31.000Z,11.03
2023-04-29T21:33:58.059Z,10.98
2023-04-29T21:36:25.071Z,10.98
2023-04-29T21:38:52.950Z,10.93
2023-04-29T21:41:27.589Z,10.87
2023-04-29T21:43:58.318Z,10.83
2023-04-29T21:46:27.833Z,10.81
2023-04-29T21:48:56.448Z,10.80
2023-04-29T21:51:23.437Z,10.79
2023-04-29T21:53:51.037Z,10.78
2023-04-29T21:56:18.185Z,10.78
2023-04-29T21:58:45.551Z,10.78
2023-04-29T22:01:40.504Z,10.77
2023-04-29T22:04:07.643Z,10.72
2023-04-29T22:06:34.910Z,10.68
2023-04-29T22:09:02.439Z,10.66
2023-04-29T22:11:29.504Z,10.64
2023-04-29T22:13:56.562Z,10.64
2023-04-29T22:16:24.319Z,10.69
2023-04-29T22:18:52.111Z,10.67
2023-04-29T22:21:19.170Z,10.62
2023-04-29T22:23:46.681Z,10.59
2023-04-29T22:26:13.703Z,10.58
2023-04-29T22:28:40.806Z,10.54
2023-04-29T22:31:08.003Z,10.43
2023-04-29T22:33:35.545Z,10.32
2023-04-29T22:36:03.076Z,10.30
2023-04-29T22:38:30.072Z,10.27
2023-04-29T22:40:57.062Z,10.24
2023-04-29T22:43:24.209Z,10.25
2023-04-29T22:45:52.744Z,10.15
2023-04-29T22:48:20.071Z,10.11
2023-04-29T22:50:54.012Z,10.10
2023-04-29T22:53:21.350Z,10.01
2023-04-29T22:55:56.141Z,9.93
2023-04-29T22:58:25.584Z,9.76
2023-04-29T23:00:56.925Z,9.61
2023-04-29T23:03:24.233Z,9.50
2023-04-29T23:05:51.431Z,9.42
2023-04-29T23:08:18.477Z,9.34
2023-04-29T23:10:49.778Z,9.35
2023-04-29T23:13:17.222Z,9.30
2023-04-29T23:15:44.928Z,9.27
2023-04-29T23:18:12.053Z,9.27
2023-04-29T23:20:39.055Z,9.29
2023-04-29T23:23:06.178Z,9.31
2023-04-29T23:25:33.226Z,9.33
2023-04-29T23:28:00.901Z,9.33
2023-04-29T23:30:28.175Z,9.29
2023-04-29T23:32:55.441Z,9.25
2023-04-29T23:35:22.652Z,9.23
2023-04-29T23:37:49.683Z,9.15
2023-04-29T23:40:17.005Z,9.09
2023-04-29T23:42:44.076Z,9.16
2023-04-29T23:45:11.183Z,9.16
2023-04-29T23:47:38.321Z,9.13
2023-04-29T23:50:05.993Z,9.10
2023-04-29T23:52:33.111Z,9.09
2023-04-29T23:55:00.241Z,9.10
2023-04-29T23:57:27.242Z,9.06
2023-04-29T23:59:54.419Z,9.06
